sensor_id;sensor_type;location;lat;lon;timestamp;P1;durP1;ratioP1;P2;durP2;ratioP2
68273;SDS011;55104;47.356;19.448;2023-05-07T00:00:19;11.45;;;5.18;;
68273;SDS011;55104;47.356;19.448;2023-05-07T00:03:22;15.05;;;6.07;;
68273;SDS011;55104;47.356;19.448;2023-05-07T00:06:24;10.30;;;4.82;;
68273;SDS011;55104;47.356;19.448;2023-05-07T00:09:27;10.07;;;4.93;;
68273;SDS011;55104;47.356;19.448;2023-05-07T00:12:30;13.32;;;5.15;;
68273;SDS011;55104;47.356;19.448;2023-05-07T00:15:33;12.98;;;5.20;;
68273;SDS011;55104;47.356;19.448;2023-05-07T00:18:35;13.65;;;5.43;;
68273;SDS011;55104;47.356;19.448;2023-05-07T00:21:37;11.65;;;5.40;;
68273;SDS011;55104;47.356;19.448;2023-05-07T00:24:39;12.47;;;5.73;;
68273;SDS011;55104;47.356;19.448;2023-05-07T00:27:41;11.27;;;5.32;;
68273;SDS011;55104;47.356;19.448;2023-05-07T00:30:43;11.90;;;5.22;;
68273;SDS011;55104;47.356;19.448;2023-05-07T00:33:45;12.13;;;5.35;;
68273;SDS011;55104;47.356;19.448;2023-05-07T00:36:48;11.93;;;5.93;;
68273;SDS011;55104;47.356;19.448;2023-05-07T00:39:50;14.20;;;5.80;;
68273;SDS011;55104;47.356;19.448;2023-05-07T00:42:53;12.38;;;5.50;;
68273;SDS011;55104;47.356;19.448;2023-05-07T00:46:00;12.35;;;5.93;;
68273;SDS011;55104;47.356;19.448;2023-05-07T00:49:03;11.85;;;5.32;;
68273;SDS011;55104;47.356;19.448;2023-05-07T00:52:05;12.80;;;5.90;;
68273;SDS011;55104;47.356;19.448;2023-05-07T00:55:09;13.50;;;5.57;;
68273;SDS011;55104;47.356;19.448;2023-05-07T00:58:12;11.18;;;5.15;;
68273;SDS011;55104;47.356;19.448;2023-05-07T01:01:14;12.57;;;4.93;;
68273;SDS011;55104;47.356;19.448;2023-05-07T01:04:18;14.65;;;6.28;;
68273;SDS011;55104;47.356;19.448;2023-05-07T01:07:20;10.38;;;4.35;;
68273;SDS011;55104;47.356;19.448;2023-05-07T01:10:24;12.80;;;5.30;;
68273;SDS011;55104;47.356;19.448;2023-05-07T01:13:26;11.93;;;5.10;;
68273;SDS011;55104;47.356;19.448;2023-05-07T01:16:29;12.15;;;5.40;;
68273;SDS011;55104;47.356;19.448;2023-05-07T01:19:31;12.85;;;6.47;;
68273;SDS011;55104;47.356;19.448;2023-05-07T01:22:35;11.82;;;5.32;;
68273;SDS011;55104;47.356;19.448;2023-05-07T01:25:39;14.43;;;5.77;;
68273;SDS011;55104;47.356;19.448;2023-05-07T01:28:43;12.98;;;5.78;;
68273;SDS011;55104;47.356;19.448;2023-05-07T01:31:45;14.07;;;5.90;;
68273;SDS011;55104;47.356;19.448;2023-05-07T01:34:49;15.30;;;7.20;;
68273;SDS011;55104;47.356;19.448;2023-05-07T01:37:52;12.68;;;6.72;;
68273;SDS011;55104;47.356;19.448;2023-05-07T01:40:56;11.47;;;6.43;;
68273;SDS011;55104;47.356;19.448;2023-05-07T01:43:59;15.15;;;6.93;;
68273;SDS011;55104;47.356;19.448;2023-05-07T01:47:02;19.30;;;7.25;;
68273;SDS011;55104;47.356;19.448;2023-05-07T01:50:07;15.52;;;6.57;;
68273;SDS011;55104;47.356;19.448;2023-05-07T01:53:11;17.05;;;6.60;;
68273;SDS011;55104;47.356;19.448;2023-05-07T01:56:13;17.03;;;7.63;;
68273;SDS011;55104;47.356;19.448;2023-05-07T01:59:16;15.10;;;6.78;;
68273;SDS011;55104;47.356;19.448;2023-05-07T02:02:18;17.98;;;7.45;;
68273;SDS011;55104;47.356;19.448;2023-05-07T02:05:21;14.32;;;7.18;;
68273;SDS011;55104;47.356;19.448;2023-05-07T02:08:30;14.60;;;6.75;;
68273;SDS011;55104;47.356;19.448;2023-05-07T02:11:33;16.40;;;7.97;;
68273;SDS011;55104;47.356;19.448;2023-05-07T02:14:35;15.70;;;7.22;;
68273;SDS011;55104;47.356;19.448;2023-05-07T02:17:57;16.08;;;6.78;;
68273;SDS011;55104;47.356;19.448;2023-05-07T02:21:01;18.38;;;7.35;;
68273;SDS011;55104;47.356;19.448;2023-05-07T02:24:04;13.75;;;6.28;;
68273;SDS011;55104;47.356;19.448;2023-05-07T02:27:06;19.10;;;6.30;;
68273;SDS011;55104;47.356;19.448;2023-05-07T02:30:08;14.80;;;6.78;;
68273;SDS011;55104;47.356;19.448;2023-05-07T02:33:11;16.55;;;7.82;;
68273;SDS011;55104;47.356;19.448;2023-05-07T02:36:15;17.38;;;7.55;;
68273;SDS011;55104;47.356;19.448;2023-05-07T02:39:32;18.83;;;8.00;;
68273;SDS011;55104;47.356;19.448;2023-05-07T02:42:34;16.57;;;7.37;;
68273;SDS011;55104;47.356;19.448;2023-05-07T02:45:36;14.45;;;6.85;;
68273;SDS011;55104;47.356;19.448;2023-05-07T02:48:41;14.82;;;6.60;;
68273;SDS011;55104;47.356;19.448;2023-05-07T02:51:43;12.80;;;5.88;;
68273;SDS011;55104;47.356;19.448;2023-05-07T02:54:51;13.25;;;5.75;;
68273;SDS011;55104;47.356;19.448;2023-05-07T02:57:53;15.17;;;7.10;;
68273;SDS011;55104;47.356;19.448;2023-05-07T03:00:55;12.38;;;5.57;;
68273;SDS011;55104;47.356;19.448;2023-05-07T03:04:06;12.68;;;6.15;;
68273;SDS011;55104;47.356;19.448;2023-05-07T03:07:08;13.02;;;6.28;;
68273;SDS011;55104;47.356;19.448;2023-05-07T03:10:10;12.50;;;5.50;;
68273;SDS011;55104;47.356;19.448;2023-05-07T03:13:12;14.83;;;5.67;;
68273;SDS011;55104;47.356;19.448;2023-05-07T03:16:15;12.88;;;6.13;;
68273;SDS011;55104;47.356;19.448;2023-05-07T03:19:17;12.88;;;6.13;;
68273;SDS011;55104;47.356;19.448;2023-05-07T03:22:19;13.13;;;5.43;;
68273;SDS011;55104;47.356;19.448;2023-05-07T03:25:22;12.90;;;6.03;;
68273;SDS011;55104;47.356;19.448;2023-05-07T03:28:24;20.13;;;6.90;;
68273;SDS011;55104;47.356;19.448;2023-05-07T03:31:32;15.43;;;6.80;;
68273;SDS011;55104;47.356;19.448;2023-05-07T03:34:35;12.88;;;6.28;;
68273;SDS011;55104;47.356;19.448;2023-05-07T03:37:37;17.88;;;6.35;;
68273;SDS011;55104;47.356;19.448;2023-05-07T03:40:40;13.95;;;5.45;;
68273;SDS011;55104;47.356;19.448;2023-05-07T03:43:43;14.77;;;6.30;;
68273;SDS011;55104;47.356;19.448;2023-05-07T03:46:46;13.90;;;6.00;;
68273;SDS011;55104;47.356;19.448;2023-05-07T03:49:48;12.73;;;5.20;;
68273;SDS011;55104;47.356;19.448;2023-05-07T03:52:51;16.30;;;6.80;;
68273;SDS011;55104;47.356;19.448;2023-05-07T03:55:56;13.60;;;5.63;;
68273;SDS011;55104;47.356;19.448;2023-05-07T03:58:58;13.27;;;6.10;;
68273;SDS011;55104;47.356;19.448;2023-05-07T04:02:00;13.57;;;6.15;;
68273;SDS011;55104;47.356;19.448;2023-05-07T04:05:06;13.02;;;6.28;;
68273;SDS011;55104;47.356;19.448;2023-05-07T04:08:09;13.55;;;6.63;;
68273;SDS011;55104;47.356;19.448;2023-05-07T04:11:17;13.70;;;6.15;;
68273;SDS011;55104;47.356;19.448;2023-05-07T04:14:19;14.27;;;5.90;;
68273;SDS011;55104;47.356;19.448;2023-05-07T04:17:22;10.65;;;5.40;;
68273;SDS011;55104;47.356;19.448;2023-05-07T04:20:25;12.60;;;5.80;;
68273;SDS011;55104;47.356;19.448;2023-05-07T04:23:33;13.25;;;6.22;;
68273;SDS011;55104;47.356;19.448;2023-05-07T04:26:38;18.80;;;6.78;;
68273;SDS011;55104;47.356;19.448;2023-05-07T04:29:40;14.13;;;6.00;;
68273;SDS011;55104;47.356;19.448;2023-05-07T04:32:46;11.68;;;5.40;;
68273;SDS011;55104;47.356;19.448;2023-05-07T04:35:50;14.88;;;6.13;;
68273;SDS011;55104;47.356;19.448;2023-05-07T04:38:52;12.70;;;5.57;;
68273;SDS011;55104;47.356;19.448;2023-05-07T04:41:54;15.00;;;5.93;;
68273;SDS011;55104;47.356;19.448;2023-05-07T04:44:57;12.70;;;5.57;;
68273;SDS011;55104;47.356;19.448;2023-05-07T04:48:00;14.90;;;5.60;;
68273;SDS011;55104;47.356;19.448;2023-05-07T04:51:03;12.52;;;5.93;;
68273;SDS011;55104;47.356;19.448;2023-05-07T04:54:06;13.35;;;5.38;;
68273;SDS011;55104;47.356;19.448;2023-05-07T04:57:08;11.35;;;4.88;;
68273;SDS011;55104;47.356;19.448;2023-05-07T05:00:10;12.67;;;6.03;;
68273;SDS011;55104;47.356;19.448;2023-05-07T05:03:18;10.85;;;5.47;;
68273;SDS011;55104;47.356;19.448;2023-05-07T05:06:20;15.23;;;6.25;;
68273;SDS011;55104;47.356;19.448;2023-05-07T05:09:23;14.52;;;6.05;;
68273;SDS011;55104;47.356;19.448;2023-05-07T05:12:26;15.95;;;6.88;;
68273;SDS011;55104;47.356;19.448;2023-05-07T05:15:28;14.20;;;6.47;;
68273;SDS011;55104;47.356;19.448;2023-05-07T05:18:34;13.15;;;6.15;;
68273;SDS011;55104;47.356;19.448;2023-05-07T05:21:36;15.57;;;6.75;;
68273;SDS011;55104;47.356;19.448;2023-05-07T05:24:42;12.10;;;5.63;;
68273;SDS011;55104;47.356;19.448;2023-05-07T05:27:44;12.35;;;5.75;;
68273;SDS011;55104;47.356;19.448;2023-05-07T05:30:47;12.77;;;5.00;;
68273;SDS011;55104;47.356;19.448;2023-05-07T05:33:50;10.67;;;5.37;;
68273;SDS011;55104;47.356;19.448;2023-05-07T05:36:52;11.60;;;5.18;;
68273;SDS011;55104;47.356;19.448;2023-05-07T05:39:54;10.25;;;4.10;;
68273;SDS011;55104;47.356;19.448;2023-05-07T05:42:57;10.45;;;4.20;;
68273;SDS011;55104;47.356;19.448;2023-05-07T05:46:00;8.90;;;3.87;;
68273;SDS011;55104;47.356;19.448;2023-05-07T05:49:03;8.20;;;3.70;;
68273;SDS011;55104;47.356;19.448;2023-05-07T05:52:06;7.75;;;3.25;;
68273;SDS011;55104;47.356;19.448;2023-05-07T05:55:10;9.63;;;3.28;;
68273;SDS011;55104;47.356;19.448;2023-05-07T05:58:12;8.32;;;3.13;;
68273;SDS011;55104;47.356;19.448;2023-05-07T06:01:23;8.50;;;3.10;;
68273;SDS011;55104;47.356;19.448;2023-05-07T06:04:27;7.70;;;3.60;;
68273;SDS011;55104;47.356;19.448;2023-05-07T06:07:30;6.00;;;2.40;;
68273;SDS011;55104;47.356;19.448;2023-05-07T06:10:32;5.90;;;2.42;;
68273;SDS011;55104;47.356;19.448;2023-05-07T06:13:34;6.88;;;2.22;;
68273;SDS011;55104;47.356;19.448;2023-05-07T06:16:37;7.27;;;3.10;;
68273;SDS011;55104;47.356;19.448;2023-05-07T06:19:41;5.83;;;1.90;;
68273;SDS011;55104;47.356;19.448;2023-05-07T06:22:45;5.40;;;2.30;;
68273;SDS011;55104;47.356;19.448;2023-05-07T06:25:49;6.20;;;2.20;;
68273;SDS011;55104;47.356;19.448;2023-05-07T06:28:58;5.63;;;1.90;;
68273;SDS011;55104;47.356;19.448;2023-05-07T06:32:09;5.43;;;2.00;;
68273;SDS011;55104;47.356;19.448;2023-05-07T06:35:17;5.90;;;1.83;;
68273;SDS011;55104;47.356;19.448;2023-05-07T06:38:19;5.93;;;1.85;;
68273;SDS011;55104;47.356;19.448;2023-05-07T06:41:23;5.03;;;1.80;;
68273;SDS011;55104;47.356;19.448;2023-05-07T06:44:25;5.65;;;2.05;;
68273;SDS011;55104;47.356;19.448;2023-05-07T06:47:42;5.47;;;1.70;;
68273;SDS011;55104;47.356;19.448;2023-05-07T06:50:45;4.90;;;1.87;;
68273;SDS011;55104;47.356;19.448;2023-05-07T06:53:47;5.32;;;1.77;;
68273;SDS011;55104;47.356;19.448;2023-05-07T06:56:49;5.10;;;1.48;;
68273;SDS011;55104;47.356;19.448;2023-05-07T06:59:52;5.55;;;1.67;;
68273;SDS011;55104;47.356;19.448;2023-05-07T07:02:55;5.10;;;1.80;;
68273;SDS011;55104;47.356;19.448;2023-05-07T07:06:00;6.33;;;2.20;;
68273;SDS011;55104;47.356;19.448;2023-05-07T07:09:04;5.82;;;2.30;;
68273;SDS011;55104;47.356;19.448;2023-05-07T07:12:06;4.75;;;1.60;;
68273;SDS011;55104;47.356;19.448;2023-05-07T07:15:11;5.53;;;2.00;;
68273;SDS011;55104;47.356;19.448;2023-05-07T07:18:13;5.47;;;1.60;;
68273;SDS011;55104;47.356;19.448;2023-05-07T07:21:16;9.23;;;1.80;;
68273;SDS011;55104;47.356;19.448;2023-05-07T07:24:18;5.05;;;1.58;;
68273;SDS011;55104;47.356;19.448;2023-05-07T07:27:27;5.20;;;1.60;;
68273;SDS011;55104;47.356;19.448;2023-05-07T07:30:29;4.68;;;1.73;;
68273;SDS011;55104;47.356;19.448;2023-05-07T07:33:31;4.93;;;1.80;;
68273;SDS011;55104;47.356;19.448;2023-05-07T07:36:33;5.97;;;1.87;;
68273;SDS011;55104;47.356;19.448;2023-05-07T07:39:49;4.68;;;1.65;;
68273;SDS011;55104;47.356;19.448;2023-05-07T07:42:52;7.07;;;1.50;;
68273;SDS011;55104;47.356;19.448;2023-05-07T07:45:54;5.53;;;1.70;;
68273;SDS011;55104;47.356;19.448;2023-05-07T07:48:56;4.93;;;1.53;;
68273;SDS011;55104;47.356;19.448;2023-05-07T07:52:00;5.47;;;1.83;;
68273;SDS011;55104;47.356;19.448;2023-05-07T07:55:04;6.10;;;2.00;;
68273;SDS011;55104;47.356;19.448;2023-05-07T07:58:07;5.50;;;1.40;;
68273;SDS011;55104;47.356;19.448;2023-05-07T08:01:10;4.90;;;1.40;;
68273;SDS011;55104;47.356;19.448;2023-05-07T08:04:15;4.77;;;1.63;;
68273;SDS011;55104;47.356;19.448;2023-05-07T08:07:18;5.00;;;1.63;;
68273;SDS011;55104;47.356;19.448;2023-05-07T08:10:23;4.63;;;1.70;;
68273;SDS011;55104;47.356;19.448;2023-05-07T08:13:31;4.60;;;1.60;;
68273;SDS011;55104;47.356;19.448;2023-05-07T08:16:34;5.00;;;1.70;;
68273;SDS011;55104;47.356;19.448;2023-05-07T08:19:36;4.73;;;1.63;;
68273;SDS011;55104;47.356;19.448;2023-05-07T08:22:41;5.53;;;2.10;;
68273;SDS011;55104;47.356;19.448;2023-05-07T08:25:43;5.30;;;1.75;;
68273;SDS011;55104;47.356;19.448;2023-05-07T08:28:48;7.28;;;2.28;;
68273;SDS011;55104;47.356;19.448;2023-05-07T08:31:50;6.15;;;2.33;;
68273;SDS011;55104;47.356;19.448;2023-05-07T08:34:53;6.30;;;2.27;;
68273;SDS011;55104;47.356;19.448;2023-05-07T08:37:55;6.07;;;2.10;;
68273;SDS011;55104;47.356;19.448;2023-05-07T08:40:57;5.63;;;1.85;;
68273;SDS011;55104;47.356;19.448;2023-05-07T08:44:00;5.28;;;1.90;;
68273;SDS011;55104;47.356;19.448;2023-05-07T08:47:06;5.00;;;2.03;;
68273;SDS011;55104;47.356;19.448;2023-05-07T08:50:10;6.53;;;2.53;;
68273;SDS011;55104;47.356;19.448;2023-05-07T08:53:13;6.27;;;2.67;;
68273;SDS011;55104;47.356;19.448;2023-05-07T08:56:18;6.07;;;2.47;;
68273;SDS011;55104;47.356;19.448;2023-05-07T08:59:24;5.57;;;2.22;;
68273;SDS011;55104;47.356;19.448;2023-05-07T09:02:27;6.18;;;2.42;;
68273;SDS011;55104;47.356;19.448;2023-05-07T09:05:30;6.17;;;2.60;;
68273;SDS011;55104;47.356;19.448;2023-05-07T09:08:33;6.10;;;2.20;;
68273;SDS011;55104;47.356;19.448;2023-05-07T09:11:38;5.63;;;2.00;;
68273;SDS011;55104;47.356;19.448;2023-05-07T09:14:41;6.65;;;2.22;;
68273;SDS011;55104;47.356;19.448;2023-05-07T09:17:43;5.50;;;2.05;;
68273;SDS011;55104;47.356;19.448;2023-05-07T09:20:46;5.93;;;2.17;;
68273;SDS011;55104;47.356;19.448;2023-05-07T09:23:50;8.13;;;2.30;;
68273;SDS011;55104;47.356;19.448;2023-05-07T09:26:57;6.05;;;2.40;;
68273;SDS011;55104;47.356;19.448;2023-05-07T09:30:02;7.45;;;2.28;;
68273;SDS011;55104;47.356;19.448;2023-05-07T09:33:06;7.43;;;2.55;;
68273;SDS011;55104;47.356;19.448;2023-05-07T09:36:12;6.37;;;2.50;;
68273;SDS011;55104;47.356;19.448;2023-05-07T09:39:16;5.80;;;2.30;;
68273;SDS011;55104;47.356;19.448;2023-05-07T09:42:22;8.02;;;2.50;;
68273;SDS011;55104;47.356;19.448;2023-05-07T09:45:32;7.55;;;2.83;;
68273;SDS011;55104;47.356;19.448;2023-05-07T09:48:36;6.40;;;2.38;;
68273;SDS011;55104;47.356;19.448;2023-05-07T09:52:00;5.70;;;2.07;;
68273;SDS011;55104;47.356;19.448;2023-05-07T09:55:05;7.17;;;2.60;;
68273;SDS011;55104;47.356;19.448;2023-05-07T09:58:09;7.13;;;2.60;;
68273;SDS011;55104;47.356;19.448;2023-05-07T10:01:15;7.32;;;2.78;;
68273;SDS011;55104;47.356;19.448;2023-05-07T10:04:19;7.25;;;3.00;;
68273;SDS011;55104;47.356;19.448;2023-05-07T10:07:22;7.37;;;3.07;;
68273;SDS011;55104;47.356;19.448;2023-05-07T10:10:28;7.20;;;2.90;;
68273;SDS011;55104;47.356;19.448;2023-05-07T10:13:32;6.10;;;2.47;;
68273;SDS011;55104;47.356;19.448;2023-05-07T10:16:37;7.32;;;3.03;;
68273;SDS011;55104;47.356;19.448;2023-05-07T10:19:44;7.18;;;3.15;;
68273;SDS011;55104;47.356;19.448;2023-05-07T10:22:48;7.80;;;2.93;;
68273;SDS011;55104;47.356;19.448;2023-05-07T10:25:58;8.60;;;3.10;;
68273;SDS011;55104;47.356;19.448;2023-05-07T10:29:42;7.95;;;3.25;;
68273;SDS011;55104;47.356;19.448;2023-05-07T10:32:42;6.82;;;2.78;;
68273;SDS011;55104;47.356;19.448;2023-05-07T10:35:58;8.32;;;3.17;;
68273;SDS011;55104;47.356;19.448;2023-05-07T10:39:04;6.73;;;2.60;;
68273;SDS011;55104;47.356;19.448;2023-05-07T10:42:08;6.67;;;2.47;;
68273;SDS011;55104;47.356;19.448;2023-05-07T10:45:19;6.45;;;2.55;;
68273;SDS011;55104;47.356;19.448;2023-05-07T10:48:24;6.28;;;2.40;;
68273;SDS011;55104;47.356;19.448;2023-05-07T10:51:42;7.63;;;2.65;;
68273;SDS011;55104;47.356;19.448;2023-05-07T10:58:34;6.10;;;2.17;;
68273;SDS011;55104;47.356;19.448;2023-05-07T11:02:01;6.60;;;2.30;;
68273;SDS011;55104;47.356;19.448;2023-05-07T11:05:22;7.05;;;2.70;;
68273;SDS011;55104;47.356;19.448;2023-05-07T11:11:55;5.03;;;1.80;;
68273;SDS011;55104;47.356;19.448;2023-05-07T11:15:08;5.93;;;1.83;;
68273;SDS011;55104;47.356;19.448;2023-05-07T11:18:16;5.60;;;1.58;;
68273;SDS011;55104;47.356;19.448;2023-05-07T11:21:36;4.65;;;1.48;;
68273;SDS011;55104;47.356;19.448;2023-05-07T11:25:06;4.15;;;1.60;;
68273;SDS011;55104;47.356;19.448;2023-05-07T11:28:10;5.07;;;1.70;;
68273;SDS011;55104;47.356;19.448;2023-05-07T11:31:23;5.07;;;1.50;;
68273;SDS011;55104;47.356;19.448;2023-05-07T11:34:28;5.32;;;1.42;;
68273;SDS011;55104;47.356;19.448;2023-05-07T11:37:32;4.88;;;1.63;;
68273;SDS011;55104;47.356;19.448;2023-05-07T11:40:52;4.40;;;1.25;;
68273;SDS011;55104;47.356;19.448;2023-05-07T11:43:57;4.17;;;1.47;;
68273;SDS011;55104;47.356;19.448;2023-05-07T11:47:00;4.80;;;1.50;;
68273;SDS011;55104;47.356;19.448;2023-05-07T11:50:07;5.80;;;1.92;;
68273;SDS011;55104;47.356;19.448;2023-05-07T11:53:09;6.75;;;1.83;;
68273;SDS011;55104;47.356;19.448;2023-05-07T11:56:15;5.90;;;1.80;;
68273;SDS011;55104;47.356;19.448;2023-05-07T11:59:19;5.23;;;1.97;;
68273;SDS011;55104;47.356;19.448;2023-05-07T12:02:21;6.53;;;1.87;;
68273;SDS011;55104;47.356;19.448;2023-05-07T12:05:24;6.38;;;2.17;;
68273;SDS011;55104;47.356;19.448;2023-05-07T12:08:26;6.35;;;2.38;;
68273;SDS011;55104;47.356;19.448;2023-05-07T12:11:28;6.75;;;2.10;;
68273;SDS011;55104;47.356;19.448;2023-05-07T12:14:30;5.80;;;2.30;;
68273;SDS011;55104;47.356;19.448;2023-05-07T12:17:34;6.17;;;2.37;;
68273;SDS011;55104;47.356;19.448;2023-05-07T12:20:36;6.22;;;2.28;;
68273;SDS011;55104;47.356;19.448;2023-05-07T12:23:39;5.57;;;2.15;;
68273;SDS011;55104;47.356;19.448;2023-05-07T12:26:41;7.05;;;1.92;;
68273;SDS011;55104;47.356;19.448;2023-05-07T12:29:46;5.20;;;2.03;;
68273;SDS011;55104;47.356;19.448;2023-05-07T12:32:51;5.47;;;1.97;;
68273;SDS011;55104;47.356;19.448;2023-05-07T12:35:55;5.07;;;2.03;;
68273;SDS011;55104;47.356;19.448;2023-05-07T12:38:58;4.65;;;1.60;;
68273;SDS011;55104;47.356;19.448;2023-05-07T12:42:01;5.38;;;1.60;;
68273;SDS011;55104;47.356;19.448;2023-05-07T12:45:10;4.23;;;1.43;;
68273;SDS011;55104;47.356;19.448;2023-05-07T12:48:19;5.13;;;1.60;;
68273;SDS011;55104;47.356;19.448;2023-05-07T12:51:21;4.75;;;1.65;;
68273;SDS011;55104;47.356;19.448;2023-05-07T12:57:37;4.30;;;1.58;;
68273;SDS011;55104;47.356;19.448;2023-05-07T13:00:44;4.90;;;1.53;;
68273;SDS011;55104;47.356;19.448;2023-05-07T13:03:48;4.00;;;1.40;;
68273;SDS011;55104;47.356;19.448;2023-05-07T13:06:52;5.65;;;1.20;;
68273;SDS011;55104;47.356;19.448;2023-05-07T13:09:54;5.05;;;1.65;;
68273;SDS011;55104;47.356;19.448;2023-05-07T13:12:56;4.80;;;1.80;;
68273;SDS011;55104;47.356;19.448;2023-05-07T13:15:59;5.13;;;1.50;;
68273;SDS011;55104;47.356;19.448;2023-05-07T13:19:02;4.37;;;1.33;;
68273;SDS011;55104;47.356;19.448;2023-05-07T13:22:05;4.18;;;1.50;;
68273;SDS011;55104;47.356;19.448;2023-05-07T13:25:07;5.28;;;1.52;;
68273;SDS011;55104;47.356;19.448;2023-05-07T13:28:10;5.60;;;1.40;;
68273;SDS011;55104;47.356;19.448;2023-05-07T13:31:12;4.03;;;1.30;;
68273;SDS011;55104;47.356;19.448;2023-05-07T13:34:14;5.97;;;1.40;;
68273;SDS011;55104;47.356;19.448;2023-05-07T13:37:16;4.88;;;1.58;;
68273;SDS011;55104;47.356;19.448;2023-05-07T13:40:18;4.45;;;1.30;;
68273;SDS011;55104;47.356;19.448;2023-05-07T13:43:20;7.63;;;2.00;;
68273;SDS011;55104;47.356;19.448;2023-05-07T13:46:23;5.40;;;1.93;;
68273;SDS011;55104;47.356;19.448;2023-05-07T13:49:25;7.47;;;1.57;;
68273;SDS011;55104;47.356;19.448;2023-05-07T13:52:27;4.72;;;1.48;;
68273;SDS011;55104;47.356;19.448;2023-05-07T13:55:29;6.22;;;1.92;;
68273;SDS011;55104;47.356;19.448;2023-05-07T13:58:31;5.18;;;1.88;;
68273;SDS011;55104;47.356;19.448;2023-05-07T14:01:34;4.37;;;1.40;;
68273;SDS011;55104;47.356;19.448;2023-05-07T14:04:37;7.80;;;2.00;;
68273;SDS011;55104;47.356;19.448;2023-05-07T14:07:39;7.32;;;3.20;;
68273;SDS011;55104;47.356;19.448;2023-05-07T14:10:41;9.95;;;4.10;;
68273;SDS011;55104;47.356;19.448;2023-05-07T14:13:44;8.85;;;2.80;;
68273;SDS011;55104;47.356;19.448;2023-05-07T14:16:46;5.73;;;1.90;;
68273;SDS011;55104;47.356;19.448;2023-05-07T14:19:51;5.03;;;1.70;;
68273;SDS011;55104;47.356;19.448;2023-05-07T14:22:55;10.43;;;2.08;;
68273;SDS011;55104;47.356;19.448;2023-05-07T14:25:58;5.28;;;1.95;;
68273;SDS011;55104;47.356;19.448;2023-05-07T14:29:01;4.25;;;1.40;;
68273;SDS011;55104;47.356;19.448;2023-05-07T14:32:03;5.07;;;1.67;;
68273;SDS011;55104;47.356;19.448;2023-05-07T14:35:05;4.20;;;1.40;;
68273;SDS011;55104;47.356;19.448;2023-05-07T14:38:07;5.80;;;1.98;;
68273;SDS011;55104;47.356;19.448;2023-05-07T14:41:09;4.70;;;1.88;;
68273;SDS011;55104;47.356;19.448;2023-05-07T14:44:12;6.10;;;2.03;;
68273;SDS011;55104;47.356;19.448;2023-05-07T14:47:14;7.13;;;2.10;;
68273;SDS011;55104;47.356;19.448;2023-05-07T14:50:20;5.33;;;1.90;;
68273;SDS011;55104;47.356;19.448;2023-05-07T14:53:22;4.43;;;1.70;;
68273;SDS011;55104;47.356;19.448;2023-05-07T14:56:25;5.40;;;1.75;;
68273;SDS011;55104;47.356;19.448;2023-05-07T14:59:28;5.97;;;2.25;;
68273;SDS011;55104;47.356;19.448;2023-05-07T15:02:30;4.67;;;2.03;;
68273;SDS011;55104;47.356;19.448;2023-05-07T15:05:32;5.73;;;2.03;;
68273;SDS011;55104;47.356;19.448;2023-05-07T15:08:35;4.63;;;1.75;;
68273;SDS011;55104;47.356;19.448;2023-05-07T15:11:37;5.25;;;2.00;;
68273;SDS011;55104;47.356;19.448;2023-05-07T15:14:40;6.28;;;2.10;;
68273;SDS011;55104;47.356;19.448;2023-05-07T15:17:42;3.17;;;1.00;;
68273;SDS011;55104;47.356;19.448;2023-05-07T15:20:45;3.73;;;1.20;;
68273;SDS011;55104;47.356;19.448;2023-05-07T15:23:47;4.40;;;1.10;;
68273;SDS011;55104;47.356;19.448;2023-05-07T15:26:49;3.40;;;1.02;;
68273;SDS011;55104;47.356;19.448;2023-05-07T15:29:53;5.05;;;1.65;;
68273;SDS011;55104;47.356;19.448;2023-05-07T15:32:55;5.20;;;1.77;;
68273;SDS011;55104;47.356;19.448;2023-05-07T15:35:57;5.43;;;2.20;;
68273;SDS011;55104;47.356;19.448;2023-05-07T15:39:00;4.70;;;1.55;;
68273;SDS011;55104;47.356;19.448;2023-05-07T15:42:04;3.90;;;1.27;;
68273;SDS011;55104;47.356;19.448;2023-05-07T15:45:06;4.32;;;1.35;;
68273;SDS011;55104;47.356;19.448;2023-05-07T15:48:09;5.40;;;1.70;;
68273;SDS011;55104;47.356;19.448;2023-05-07T15:51:12;5.00;;;1.40;;
68273;SDS011;55104;47.356;19.448;2023-05-07T15:54:14;5.57;;;2.05;;
68273;SDS011;55104;47.356;19.448;2023-05-07T15:57:19;8.13;;;1.90;;
68273;SDS011;55104;47.356;19.448;2023-05-07T16:00:22;6.35;;;2.38;;
68273;SDS011;55104;47.356;19.448;2023-05-07T16:03:27;5.40;;;1.90;;
68273;SDS011;55104;47.356;19.448;2023-05-07T16:06:30;3.80;;;1.10;;
68273;SDS011;55104;47.356;19.448;2023-05-07T16:09:33;5.35;;;1.80;;
68273;SDS011;55104;47.356;19.448;2023-05-07T16:12:35;4.68;;;1.50;;
68273;SDS011;55104;47.356;19.448;2023-05-07T16:15:37;5.45;;;1.65;;
68273;SDS011;55104;47.356;19.448;2023-05-07T16:18:39;5.40;;;1.63;;
68273;SDS011;55104;47.356;19.448;2023-05-07T16:21:41;5.17;;;1.30;;
68273;SDS011;55104;47.356;19.448;2023-05-07T16:24:44;4.60;;;1.35;;
68273;SDS011;55104;47.356;19.448;2023-05-07T16:27:46;3.90;;;1.45;;
68273;SDS011;55104;47.356;19.448;2023-05-07T16:30:48;4.82;;;1.70;;
68273;SDS011;55104;47.356;19.448;2023-05-07T16:33:51;4.83;;;1.67;;
68273;SDS011;55104;47.356;19.448;2023-05-07T16:36:53;5.50;;;1.70;;
68273;SDS011;55104;47.356;19.448;2023-05-07T16:39:55;4.65;;;1.75;;
68273;SDS011;55104;47.356;19.448;2023-05-07T16:42:57;5.00;;;1.50;;
68273;SDS011;55104;47.356;19.448;2023-05-07T16:45:59;5.63;;;1.73;;
68273;SDS011;55104;47.356;19.448;2023-05-07T16:49:01;6.07;;;1.83;;
68273;SDS011;55104;47.356;19.448;2023-05-07T16:52:03;5.33;;;1.70;;
68273;SDS011;55104;47.356;19.448;2023-05-07T16:55:06;6.70;;;1.83;;
68273;SDS011;55104;47.356;19.448;2023-05-07T16:58:09;6.32;;;1.80;;
68273;SDS011;55104;47.356;19.448;2023-05-07T17:01:12;5.53;;;1.92;;
68273;SDS011;55104;47.356;19.448;2023-05-07T17:04:15;5.90;;;1.93;;
68273;SDS011;55104;47.356;19.448;2023-05-07T17:07:17;5.10;;;1.70;;
68273;SDS011;55104;47.356;19.448;2023-05-07T17:10:20;4.85;;;1.77;;
68273;SDS011;55104;47.356;19.448;2023-05-07T17:13:22;5.35;;;1.52;;
68273;SDS011;55104;47.356;19.448;2023-05-07T17:16:24;5.28;;;1.77;;
68273;SDS011;55104;47.356;19.448;2023-05-07T17:19:27;5.67;;;1.90;;
68273;SDS011;55104;47.356;19.448;2023-05-07T17:22:29;5.10;;;1.77;;
68273;SDS011;55104;47.356;19.448;2023-05-07T17:25:31;5.70;;;1.52;;
68273;SDS011;55104;47.356;19.448;2023-05-07T17:28:34;6.05;;;2.00;;
68273;SDS011;55104;47.356;19.448;2023-05-07T17:31:37;7.05;;;2.70;;
68273;SDS011;55104;47.356;19.448;2023-05-07T17:34:39;7.43;;;2.83;;
68273;SDS011;55104;47.356;19.448;2023-05-07T17:37:41;9.60;;;3.30;;
68273;SDS011;55104;47.356;19.448;2023-05-07T17:40:47;9.52;;;3.03;;
68273;SDS011;55104;47.356;19.448;2023-05-07T17:43:49;11.05;;;2.70;;
68273;SDS011;55104;47.356;19.448;2023-05-07T17:46:52;6.40;;;2.10;;
68273;SDS011;55104;47.356;19.448;2023-05-07T17:49:54;7.03;;;1.70;;
68273;SDS011;55104;47.356;19.448;2023-05-07T17:52:56;7.00;;;1.80;;
68273;SDS011;55104;47.356;19.448;2023-05-07T17:55:58;6.97;;;2.25;;
68273;SDS011;55104;47.356;19.448;2023-05-07T17:59:00;6.55;;;1.77;;
68273;SDS011;55104;47.356;19.448;2023-05-07T18:02:02;6.35;;;2.03;;
68273;SDS011;55104;47.356;19.448;2023-05-07T18:05:04;5.23;;;2.23;;
68273;SDS011;55104;47.356;19.448;2023-05-07T18:08:08;7.47;;;3.17;;
68273;SDS011;55104;47.356;19.448;2023-05-07T18:11:10;6.35;;;2.28;;
68273;SDS011;55104;47.356;19.448;2023-05-07T18:14:12;8.25;;;2.78;;
68273;SDS011;55104;47.356;19.448;2023-05-07T18:17:15;9.32;;;2.83;;